Time;durP1;ratioP1;P1;durP2;ratioP2;P2;SDS_P1;SDS_P2;PMS_P1;PMS_P2;Temp;Humidity;BMP_temperature;BMP_pressure;BME280_temperature;BME280_humidity;BME280_pressure;Samples;Min_cycle;Max_cycle;Signal;HPM_P1;HPM_P2
2023/10/12 00:01:57;;;;;;;4.93;4.45;;;16.10;89.80;;;;;;4951028;28;20030;-89
2023/10/12 00:04:27;;;;;;;5.00;4.50;;;15.90;90.30;;;;;;4955144;28;20030;-91
2023/10/12 00:06:53;;;;;;;6.18;5.63;;;15.80;91.80;;;;;;4980975;28;20034;-92
2023/10/12 00:09:24;;;;;;;5.35;3.55;;;15.80;92.60;;;;;;4976296;28;20187;-93
2023/10/12 00:12:01;;;;;;;4.45;3.88;;;15.80;91.90;;;;;;4975391;28;20027;-93
2023/10/12 00:14:32;;;;;;;6.40;4.53;;;15.70;91.00;;;;;;4979738;28;20026;-93
2023/10/12 00:16:58;;;;;;;7.43;4.53;;;15.60;91.70;;;;;;4944650;29;20028;-91
2023/10/12 00:19:24;;;;;;;5.95;5.38;;;15.60;92.30;;;;;;4979694;28;20034;-92
2023/10/12 00:21:59;;;;;;;5.43;4.70;;;15.70;91.40;;;;;;4982013;28;20034;-90
2023/10/12 00:24:25;;;;;;;5.70;5.13;;;15.60;91.20;;;;;;4976438;28;20038;-91
2023/10/12 00:26:52;;;;;;;6.95;4.50;;;15.50;92.40;;;;;;4977676;28;20031;-92
2023/10/12 00:29:18;;;;;;;7.32;4.78;;;15.30;95.30;;;;;;4981033;28;20015;-91
2023/10/12 00:31:46;;;;;;;7.40;4.63;;;15.30;96.10;;;;;;4973259;28;20030;-91
2023/10/12 00:34:14;;;;;;;6.72;3.40;;;15.20;96.90;;;;;;4970953;28;20479;-91
2023/10/12 00:36:41;;;;;;;4.55;2.90;;;15.10;97.20;;;;;;4968947;28;20401;-89
2023/10/12 00:39:11;;;;;;;6.22;5.32;;;15.10;95.70;;;;;;4976505;28;20034;-92
2023/10/12 00:41:38;;;;;;;5.28;4.50;;;15.10;95.80;;;;;;4982070;28;20029;-91
2023/10/12 00:49:21;;;;;;;5.72;4.72;;;15.00;94.10;;;;;;4969965;28;20035;-91
2023/10/12 00:51:51;;;;;;;7.68;5.15;;;15.00;94.40;;;;;;4982826;28;20093;-91
2023/10/12 00:54:49;;;;;;;6.25;4.60;;;15.20;95.20;;;;;;4982040;28;20023;-92
2023/10/12 00:57:16;;;;;;;7.28;5.43;;;15.30;93.90;;;;;;4981076;28;20022;-91
2023/10/12 00:59:43;;;;;;;;;;;15.60;91.60;;;;;;4982318;28;20031;-91
2023/10/12 01:02:11;;;;;;;7.40;4.75;;;15.80;90.50;;;;;;4967279;28;19913;-91
2023/10/12 01:04:41;;;;;;;6.32;4.10;;;15.90;89.70;;;;;;4974130;28;20159;-90
2023/10/12 01:07:07;;;;;;;7.50;5.53;;;16.20;88.00;;;;;;4981449;28;20022;-90
2023/10/12 01:09:39;;;;;;;7.18;6.07;;;16.50;86.20;;;;;;4980919;28;20057;-91
2023/10/12 01:12:13;;;;;;;7.45;4.25;;;16.80;84.80;;;;;;4980806;28;20027;-90
2023/10/12 01:14:44;;;;;;;6.78;4.32;;;16.80;84.80;;;;;;4979194;28;20023;-91
2023/10/12 01:17:29;;;;;;;7.05;3.72;;;17.00;83.70;;;;;;4980020;28;20074;-91
2023/10/12 01:19:58;;;;;;;5.90;4.68;;;17.10;82.90;;;;;;4964633;28;20031;-91
2023/10/12 01:22:27;;;;;;;6.00;4.60;;;17.10;82.50;;;;;;4969928;28;20022;-90
2023/10/12 01:27:25;;;;;;;6.72;4.28;;;17.20;82.60;;;;;;4979088;28;20026;-90
2023/10/12 01:29:52;;;;;;;6.90;4.50;;;17.20;82.00;;;;;;4982648;28;20079;-92
2023/10/12 01:34:52;;;;;;;5.25;4.75;;;17.20;82.20;;;;;;4997344;28;20053;-91
2023/10/12 01:37:25;;;;;;;5.75;4.03;;;17.20;82.50;;;;;;4992531;28;20027;-90
2023/10/12 01:39:57;;;;;;;9.68;6.72;;;17.10;82.50;;;;;;4982751;28;20102;-90
2023/10/12 01:42:49;;;;;;;5.43;4.65;;;17.10;83.10;;;;;;4979959;28;20023;-89
2023/10/12 01:45:32;;;;;;;4.07;2.95;;;17.00;83.30;;;;;;4994832;28;20417;-91
2023/10/12 01:48:10;;;;;;;5.55;4.90;;;17.00;83.50;;;;;;4981545;28;20054;-91
2023/10/12 01:50:38;;;;;;;5.68;4.78;;;17.00;83.90;;;;;;4981997;28;20051;-92
2023/10/12 01:53:27;;;;;;;;;;;;;;;;;;;;;
2023/10/12 01:55:54;;;;;;;6.88;5.95;;;16.90;84.70;;;;;;4980684;28;20044;-91
2023/10/12 01:58:23;;;;;;;7.75;5.22;;;16.90;85.00;;;;;;4979306;28;20179;-91
2023/10/12 02:00:51;;;;;;;4.70;3.58;;;16.80;85.90;;;;;;4979606;28;20050;-93
2023/10/12 02:06:00;;;;;;;8.93;5.78;;;16.80;85.20;;;;;;4979280;28;20520;-91
2023/10/12 02:08:32;;;;;;;6.20;4.93;;;16.90;85.10;;;;;;4978861;28;20035;-91
2023/10/12 02:11:11;;;;;;;7.57;5.68;;;16.90;84.60;;;;;;4979860;28;20074;-91
2023/10/12 02:13:37;;;;;;;8.48;7.20;;;16.90;84.60;;;;;;4980621;28;20083;-92
2023/10/12 02:16:07;;;;;;;6.97;5.90;;;17.00;84.60;;;;;;4979733;28;20027;-90
2023/10/12 02:18:34;;;;;;;7.43;4.90;;;16.90;84.90;;;;;;4979832;28;20038;-92
2023/10/12 02:21:20;;;;;;;6.78;4.50;;;16.90;84.90;;;;;;4981077;28;20026;-91
2023/10/12 02:26:32;;;;;;;6.38;4.32;;;17.00;84.50;;;;;;4971778;28;20038;-92
2023/10/12 02:29:11;;;;;;;8.80;5.93;;;16.90;84.40;;;;;;4972998;28;20389;-92
2023/10/12 02:32:17;;;;;;;9.07;6.28;;;16.90;84.20;;;;;;4980120;28;20102;-90
2023/10/12 02:34:43;;;;;;;6.65;4.60;;;17.00;83.70;;;;;;4977645;28;20031;-90
2023/10/12 02:39:42;;;;;;;6.93;5.35;;;17.00;83.90;;;;;;4977346;28;20374;-89
2023/10/12 02:47:22;;;;;;;9.98;5.43;;;16.90;84.10;;;;;;4978153;28;20039;-91
2023/10/12 02:52:32;;;;;;;6.88;5.72;;;17.00;83.10;;;;;;4979362;28;20023;-92
2023/10/12 02:55:18;;;;;;;6.40;5.80;;;17.10;83.30;;;;;;4972503;28;20058;-89
2023/10/12 02:57:53;;;;;;;8.38;5.75;;;17.10;83.10;;;;;;4975721;28;20019;-90
2023/10/12 03:00:31;;;;;;;5.95;5.35;;;17.10;82.80;;;;;;4978004;28;20055;-90
2023/10/12 03:03:05;;;;;;;7.47;5.47;;;17.10;82.90;;;;;;4966004;28;20031;-91
2023/10/12 03:05:34;;;;;;;7.13;5.13;;;17.20;82.50;;;;;;4970504;28;20031;-91
2023/10/12 03:08:06;;;;;;;8.77;6.53;;;17.20;81.80;;;;;;4978949;28;20023;-91
2023/10/12 03:10:32;;;;;;;6.72;6.07;;;17.20;82.00;;;;;;4980287;28;20027;-90
2023/10/12 03:13:04;;;;;;;7.47;6.05;;;17.20;81.80;;;;;;4979709;28;20469;-91
2023/10/12 03:15:41;;;;;;;7.78;5.82;;;17.30;81.10;;;;;;4979281;28;20348;-91
2023/10/12 03:18:11;;;;;;;6.72;4.90;;;17.30;81.00;;;;;;4978373;28;20030;-90
2023/10/12 03:21:00;;;;;;;7.65;4.95;;;17.30;81.30;;;;;;4979604;28;20023;-90
2023/10/12 03:23:26;;;;;;;10.18;6.35;;;17.30;80.60;;;;;;4981779;28;20034;-89
2023/10/12 03:25:52;;;;;;;6.47;4.70;;;17.30;80.60;;;;;;4981243;28;20080;-91
2023/10/12 03:28:30;;;;;;;6.80;6.07;;;17.40;80.40;;;;;;4981031;28;20474;-92
2023/10/12 03:33:46;;;;;;;9.55;5.78;;;17.30;81.40;;;;;;4981486;28;20543;-91
2023/10/12 03:36:22;;;;;;;7.22;5.43;;;17.30;81.00;;;;;;4995956;28;20035;-90
2023/10/12 03:45:23;;;;;;;8.02;5.93;;;17.20;82.00;;;;;;4973186;28;20104;-92
2023/10/12 03:52:19;;;;;;;8.93;6.40;;;17.00;82.30;;;;;;4982028;28;20023;-90
2023/10/12 03:55:09;;;;;;;8.48;5.03;;;17.00;82.40;;;;;;4979636;28;20019;-91
2023/10/12 04:06:06;;;;;;;9.70;4.80;;;16.80;84.00;;;;;;4982431;28;20023;-92
2023/10/12 04:19:02;;;;;;;7.38;4.72;;;16.70;84.80;;;;;;4977074;28;20141;-91
2023/10/12 04:21:34;;;;;;;7.50;5.85;;;16.80;84.90;;;;;;4963663;28;20058;-91
2023/10/12 04:26:44;;;;;;;7.32;5.85;;;16.60;85.00;;;;;;4973534;28;20094;-90
2023/10/12 04:34:08;;;;;;;6.75;4.93;;;16.70;85.10;;;;;;4980472;28;20015;-91
2023/10/12 04:37:09;;;;;;;9.75;4.50;;;16.60;85.20;;;;;;4976623;28;20022;-89
2023/10/12 04:39:37;;;;;;;7.93;5.07;;;16.60;85.20;;;;;;4981807;28;20023;-90
2023/10/12 04:46:59;;;;;;;9.68;5.78;;;16.50;86.80;;;;;;4979276;28;20023;-91
2023/10/12 04:57:17;;;;;;;7.35;5.13;;;16.40;87.40;;;;;;4981447;28;20133;-87
2023/10/12 05:09:48;;;;;;;8.93;5.97;;;16.40;87.40;;;;;;4973412;28;20026;-87
2023/10/12 05:12:14;;;;;;;;;;;16.40;87.60;;;;;;4980989;28;20023;-90
2023/10/12 05:14:40;;;;;;;5.70;5.00;;;16.60;88.20;;;;;;4980713;28;19910;-90
2023/10/12 05:17:08;;;;;;;5.90;4.35;;;16.50;86.60;;;;;;4980048;28;20035;-90
2023/10/12 05:19:34;;;;;;;19.83;5.60;;;16.40;87.10;;;;;;4976352;28;20039;-90
2023/10/12 05:22:00;;;;;;;7.93;5.65;;;16.40;87.50;;;;;;4967298;28;20029;-91
2023/10/12 05:24:25;;;;;;;8.85;5.47;;;16.40;87.60;;;;;;4979192;28;20034;-92
2023/10/12 05:26:58;;;;;;;9.32;4.65;;;16.40;87.90;;;;;;4980437;28;20065;-91
2023/10/12 05:32:06;;;;;;;6.70;4.30;;;16.40;87.70;;;;;;4980305;28;20023;-89
2023/10/12 05:39:55;;;;;;;7.03;4.45;;;16.30;88.40;;;;;;4976979;28;20481;-90
2023/10/12 05:42:24;;;;;;;6.25;4.93;;;16.30;88.20;;;;;;4969149;28;20035;-91
2023/10/12 05:44:51;;;;;;;7.85;5.57;;;16.30;88.30;;;;;;4966109;28;20132;-91
2023/10/12 05:47:18;;;;;;;7.72;5.43;;;16.30;88.70;;;;;;4972118;28;20385;-91
2023/10/12 05:49:45;;;;;;;8.18;5.03;;;16.30;88.80;;;;;;4977396;28;20019;-91
2023/10/12 05:52:11;;;;;;;6.60;4.75;;;16.30;88.40;;;;;;4976201;28;20061;-89
2023/10/12 05:54:40;;;;;;;9.18;4.82;;;16.40;88.30;;;;;;4969845;28;20022;-91
2023/10/12 05:57:25;;;;;;;8.38;3.75;;;16.40;88.10;;;;;;4970370;28;20404;-91
2023/10/12 05:59:51;;;;;;;5.63;4.88;;;16.40;87.80;;;;;;4969372;28;20043;-90
2023/10/12 06:02:22;;;;;;;7.65;4.93;;;16.40;87.80;;;;;;4969872;28;20033;-91
2023/10/12 06:04:48;;;;;;;6.03;4.75;;;16.50;88.10;;;;;;4968582;28;20103;-93
2023/10/12 06:07:14;;;;;;;6.55;4.53;;;16.40;88.50;;;;;;4965596;28;20031;-93
2023/10/12 06:09:40;;;;;;;4.60;3.92;;;16.40;88.60;;;;;;4968822;28;20100;-89
2023/10/12 06:12:07;;;;;;;6.57;4.78;;;16.40;88.30;;;;;;4968930;28;20560;-93
2023/10/12 06:14:38;;;;;;;8.30;6.55;;;16.40;88.30;;;;;;4965135;28;20084;-88
2023/10/12 06:17:07;;;;;;;6.55;5.43;;;16.50;88.30;;;;;;4967791;28;20193;-89
2023/10/12 06:19:36;;;;;;;6.20;4.93;;;16.50;87.70;;;;;;4965243;28;20039;-89
2023/10/12 06:22:32;;;;;;;6.72;4.93;;;16.50;88.30;;;;;;4951494;28;20069;-91
2023/10/12 06:24:52;;;;;;;6.55;5.10;;;16.60;87.10;;;;;;4967235;28;20051;-92
2023/10/12 06:29:49;;;;;;;6.10;4.43;;;16.70;86.00;;;;;;4970060;28;20031;-91
2023/10/12 06:32:18;;;;;;;7.03;4.72;;;16.80;86.30;;;;;;4968599;28;20118;-92
2023/10/12 06:34:46;;;;;;;7.45;5.88;;;16.90;86.50;;;;;;4967255;28;20019;-89
2023/10/12 06:37:49;;;;;;;8.30;3.85;;;17.00;85.90;;;;;;4968139;28;20429;-92
2023/10/12 06:42:44;;;;;;;6.88;5.63;;;17.10;84.80;;;;;;4969170;28;20532;-91
2023/10/12 06:45:15;;;;;;;13.90;5.18;;;17.20;83.50;;;;;;4969243;28;20074;-92
2023/10/12 06:47:41;;;;;;;10.57;4.88;;;17.40;82.60;;;;;;4967810;28;20886;-90
2023/10/12 06:50:20;;;;;;;4.47;3.85;;;17.50;83.00;;;;;;4965997;28;20141;-89
2023/10/12 06:52:46;;;;;;;7.97;5.45;;;17.60;82.50;;;;;;4967494;28;20023;-90
2023/10/12 06:55:21;;;;;;;6.60;4.93;;;17.60;81.30;;;;;;4969153;28;20022;-92
2023/10/12 06:57:52;;;;;;;7.10;4.70;;;17.70;80.20;;;;;;4951916;28;20130;-91
2023/10/12 07:00:33;;;;;;;6.70;4.90;;;17.80;79.80;;;;;;4972139;28;20035;-90
2023/10/12 07:02:59;;;;;;;7.03;4.55;;;17.90;79.30;;;;;;4972587;28;20089;-92
2023/10/12 07:05:33;;;;;;;5.10;4.60;;;17.90;79.20;;;;;;4973942;28;20027;-89
2023/10/12 07:07:59;;;;;;;6.43;5.32;;;18.00;78.50;;;;;;4969648;28;20091;-91
2023/10/12 07:10:28;;;;;;;10.02;5.90;;;18.00;78.30;;;;;;4970001;28;20027;-91
2023/10/12 07:13:09;;;;;;;7.60;3.90;;;18.10;77.90;;;;;;4970324;28;20022;-91
2023/10/12 07:15:40;;;;;;;6.35;5.13;;;18.20;77.70;;;;;;4970394;28;20054;-90
2023/10/12 07:18:08;;;;;;;7.25;4.85;;;18.20;76.80;;;;;;4972400;28;20126;-93
2023/10/12 07:23:16;;;;;;;5.47;4.60;;;18.30;75.70;;;;;;4970938;28;20461;-91
2023/10/12 07:25:43;;;;;;;6.65;5.00;;;18.40;76.40;;;;;;4971670;28;20067;-90
2023/10/12 07:28:18;;;;;;;8.45;5.20;;;18.40;75.30;;;;;;4971805;28;20058;-90
2023/10/12 07:30:44;;;;;;;7.22;6.13;;;18.40;75.60;;;;;;4969494;28;20027;-90
2023/10/12 07:33:09;;;;;;;4.75;4.30;;;18.50;75.20;;;;;;4979295;28;20030;-92
2023/10/12 07:35:38;;;;;;;7.32;4.55;;;18.50;75.70;;;;;;4986853;28;20027;-92
2023/10/12 07:38:25;;;;;;;6.97;5.15;;;18.50;75.90;;;;;;4975870;28;20117;-92
2023/10/12 07:40:56;;;;;;;6.70;4.68;;;18.60;74.80;;;;;;4967624;28;20027;-88
2023/10/12 07:43:23;;;;;;;9.18;4.75;;;18.60;73.70;;;;;;4969440;28;20027;-89
2023/10/12 07:45:49;;;;;;;6.32;4.18;;;18.70;73.80;;;;;;4975771;28;20019;-89
2023/10/12 07:48:40;;;;;;;6.47;4.57;;;18.70;73.80;;;;;;4956728;28;20039;-91
2023/10/12 07:51:28;;;;;;;7.15;4.82;;;18.80;73.10;;;;;;4971596;28;20027;-91
2023/10/12 07:54:00;;;;;;;5.68;5.07;;;18.80;73.10;;;;;;4970290;28;20113;-90
2023/10/12 07:56:34;;;;;;;7.97;5.00;;;18.80;73.00;;;;;;4955781;28;20045;-92
2023/10/12 07:59:00;;;;;;;;;;;18.90;73.90;;;;;;4971571;28;20042;-90
2023/10/12 08:03:53;;;;;;;8.20;4.63;;;19.10;73.30;;;;;;4967091;28;20077;-89
2023/10/12 08:06:42;;;;;;;6.07;5.47;;;19.10;72.30;;;;;;4971876;28;20035;-91
2023/10/12 08:09:21;;;;;;;;;;;19.20;72.00;;;;;;4968025;28;20070;-91
2023/10/12 08:11:46;;;;;;;8.13;5.18;;;19.30;71.40;;;;;;4969029;28;19906;-91
2023/10/12 08:19:42;;;;;;;7.88;3.67;;;19.60;69.80;;;;;;4964980;28;20480;-90
2023/10/12 08:22:26;;;;;;;6.40;5.00;;;19.70;69.90;;;;;;4970957;28;20114;-90
2023/10/12 08:24:56;;;;;;;8.15;4.90;;;19.80;69.00;;;;;;4956309;28;20026;-91
2023/10/12 08:27:23;;;;;;;11.85;6.45;;;19.90;68.60;;;;;;4967677;28;20109;-91
2023/10/12 08:32:27;;;;;;;8.43;5.22;;;20.00;66.30;;;;;;4969439;28;20030;-90
2023/10/12 08:37:27;;;;;;;6.13;5.03;;;20.10;66.30;;;;;;4968562;28;20059;-92
2023/10/12 08:42:36;;;;;;;;;;;;;;;;;;;;;
2023/10/12 08:44:59;;;;;;;8.30;5.50;;;20.30;66.30;;;;;;4969870;28;20035;-89
2023/10/12 08:50:05;;;;;;;8.80;5.22;;;20.50;66.00;;;;;;4976438;28;20019;-92
2023/10/12 08:52:32;;;;;;;8.70;5.30;;;20.60;65.70;;;;;;4982712;28;20019;-92
2023/10/12 08:55:03;;;;;;;7.28;5.20;;;20.80;64.50;;;;;;4982239;28;20019;-92
2023/10/12 08:57:48;;;;;;;5.88;4.85;;;20.90;64.60;;;;;;4981850;28;20027;-90
2023/10/12 09:03:05;;;;;;;9.05;5.00;;;20.80;63.70;;;;;;4971538;28;20046;-94
2023/10/12 09:05:33;;;;;;;7.90;5.32;;;20.90;64.40;;;;;;4983252;28;20493;-92
2023/10/12 09:10:49;;;;;;;7.40;4.97;;;21.20;63.70;;;;;;4980088;28;20106;-93
2023/10/12 09:13:24;;;;;;;6.43;4.93;;;21.40;62.60;;;;;;4981227;28;20026;-91
2023/10/12 09:15:59;;;;;;;8.70;5.25;;;21.30;62.10;;;;;;4989940;28;20023;-92
2023/10/12 09:18:33;;;;;;;8.65;4.95;;;21.50;63.00;;;;;;4978875;28;20026;-90
2023/10/12 09:31:27;;;;;;;6.22;2.95;;;21.70;61.70;;;;;;4982425;28;20501;-93
2023/10/12 09:36:26;;;;;;;6.72;4.70;;;21.90;63.30;;;;;;4982472;28;20046;-91
2023/10/12 09:39:02;;;;;;;7.20;4.97;;;22.10;61.40;;;;;;4981884;28;20102;-93
2023/10/12 09:41:36;;;;;;;8.63;4.90;;;22.20;59.50;;;;;;4982905;28;20031;-90
2023/10/12 09:44:05;;;;;;;5.30;4.28;;;22.30;60.30;;;;;;4975576;28;20031;-92
2023/10/12 09:46:34;;;;;;;5.68;4.22;;;22.40;58.40;;;;;;4981334;28;20053;-92
2023/10/12 09:49:06;;;;;;;10.75;4.88;;;22.50;58.30;;;;;;4981266;28;20031;-91
2023/10/12 09:51:45;;;;;;;7.15;4.40;;;22.60;59.60;;;;;;4974097;28;20027;-89
2023/10/12 09:54:27;;;;;;;9.85;5.00;;;22.70;58.40;;;;;;4984774;28;20508;-91
2023/10/12 09:57:04;;;;;;;10.65;4.43;;;22.80;58.30;;;;;;4983602;28;20039;-90
2023/10/12 09:59:31;;;;;;;7.03;4.65;;;22.90;59.50;;;;;;4990370;28;20512;-91
2023/10/12 10:04:45;;;;;;;7.68;5.50;;;22.80;60.30;;;;;;4978796;28;20046;-90
2023/10/12 10:07:35;;;;;;;7.75;4.72;;;22.70;59.40;;;;;;4984344;28;20089;-89
2023/10/12 10:10:06;;;;;;;7.93;6.20;;;22.60;59.10;;;;;;4969443;28;20031;-91
2023/10/12 10:12:42;;;;;;;6.95;4.88;;;22.60;59.00;;;;;;4981068;28;20293;-90
2023/10/12 10:15:20;;;;;;;7.05;4.72;;;22.60;58.70;;;;;;4995914;28;20103;-91
2023/10/12 10:17:52;;;;;;;7.65;5.38;;;22.60;59.10;;;;;;4981301;28;20031;-90
2023/10/12 10:22:57;;;;;;;8.32;4.60;;;22.70;60.50;;;;;;4980910;28;20026;-91
2023/10/12 10:25:35;;;;;;;5.65;4.90;;;22.90;60.10;;;;;;4973918;28;20118;-91
2023/10/12 10:28:10;;;;;;;9.60;4.25;;;22.90;59.80;;;;;;4981302;28;20151;-91
2023/10/12 10:30:46;;;;;;;6.10;4.43;;;22.90;60.50;;;;;;4981990;28;20019;-92
2023/10/12 10:33:14;;;;;;;7.25;4.95;;;22.90;59.80;;;;;;4983837;28;20030;-89
2023/10/12 10:35:59;;;;;;;7.45;5.72;;;22.80;60.70;;;;;;4985931;28;20023;-90
2023/10/12 10:38:32;;;;;;;7.50;4.78;;;22.80;61.10;;;;;;4984009;28;20034;-92
2023/10/12 10:41:18;;;;;;;5.70;5.18;;;22.90;61.20;;;;;;4985430;28;20027;-91
2023/10/12 10:43:45;;;;;;;10.55;6.18;;;22.80;61.40;;;;;;4985466;28;20042;-92
2023/10/12 10:46:13;;;;;;;8.50;4.95;;;22.70;63.00;;;;;;4989680;28;20110;-93
2023/10/12 10:48:40;;;;;;;7.88;5.82;;;22.60;63.00;;;;;;4979423;28;20046;-92
2023/10/12 10:51:18;;;;;;;8.43;5.25;;;22.40;63.50;;;;;;4998099;28;20050;-91
2023/10/12 10:53:54;;;;;;;8.02;5.30;;;22.30;63.90;;;;;;4985596;28;20023;-91
2023/10/12 10:56:36;;;;;;;9.27;5.25;;;22.20;63.00;;;;;;4984347;28;20091;-92
2023/10/12 10:59:06;;;;;;;9.23;5.63;;;22.30;63.60;;;;;;4983683;28;20026;-91
2023/10/12 11:01:32;;;;;;;8.60;4.72;;;22.20;62.90;;;;;;4983563;28;20129;-90
2023/10/12 11:03:58;;;;;;;9.63;5.82;;;22.10;65.20;;;;;;4982890;28;20098;-91
2023/10/12 11:06:28;;;;;;;7.65;5.10;;;22.20;64.80;;;;;;4983864;28;20027;-91
2023/10/12 11:09:06;;;;;;;6.28;5.65;;;22.30;64.60;;;;;;4982517;28;20096;-94
2023/10/12 11:11:44;;;;;;;7.82;5.75;;;22.30;63.90;;;;;;4983720;28;20046;-92
2023/10/12 11:14:22;;;;;;;9.32;4.60;;;22.30;63.80;;;;;;4983641;28;20033;-91
2023/10/12 11:16:48;;;;;;;8.00;5.43;;;22.40;64.00;;;;;;4984562;28;20019;-92
2023/10/12 11:19:18;;;;;;;10.10;5.45;;;22.50;63.00;;;;;;4982982;28;20034;-90
2023/10/12 11:21:51;;;;;;;10.23;5.55;;;22.50;62.90;;;;;;4979834;28;20035;-91
2023/10/12 11:24:18;;;;;;;8.60;5.03;;;22.30;64.00;;;;;;4969560;28;20035;-92
2023/10/12 11:27:01;;;;;;;10.40;5.30;;;22.20;64.10;;;;;;4984361;28;20061;-88
2023/10/12 11:29:27;;;;;;;9.10;5.70;;;22.10;64.20;;;;;;4972779;28;20469;-90
2023/10/12 11:32:09;;;;;;;7.40;5.63;;;22.20;62.90;;;;;;4976155;28;20027;-90
2023/10/12 11:34:46;;;;;;;5.22;4.72;;;22.20;62.80;;;;;;4984675;28;20086;-91
2023/10/12 11:37:15;;;;;;;11.30;5.05;;;22.30;63.20;;;;;;4999733;28;20031;-92
2023/10/12 11:39:42;;;;;;;7.43;5.22;;;22.20;63.00;;;;;;4964018;28;20062;-92
2023/10/12 11:42:09;;;;;;;6.97;5.45;;;22.20;63.00;;;;;;4984163;28;20037;-90
2023/10/12 11:44:44;;;;;;;5.53;4.97;;;22.20;61.40;;;;;;4977281;28;20023;-91
2023/10/12 11:47:37;;;;;;;7.78;5.50;;;22.20;61.90;;;;;;4983676;28;20059;-91
2023/10/12 11:50:09;;;;;;;9.15;5.40;;;22.30;61.50;;;;;;4964434;29;20015;-91
2023/10/12 11:52:37;;;;;;;10.30;6.13;;;22.20;61.90;;;;;;4982820;28;20485;-90
2023/10/12 11:55:19;;;;;;;6.25;5.60;;;22.20;62.50;;;;;;4983663;28;20617;-90
2023/10/12 11:57:54;;;;;;;10.55;5.97;;;22.20;61.00;;;;;;4978513;28;20059;-91
2023/10/12 12:02:57;;;;;;;6.55;5.60;;;22.30;62.90;;;;;;4975599;28;20027;-90
2023/10/12 12:05:36;;;;;;;7.03;5.00;;;22.20;60.20;;;;;;4983318;28;20051;-91
2023/10/12 12:08:13;;;;;;;7.22;6.18;;;22.30;61.80;;;;;;4981440;28;20033;-91
2023/10/12 12:13:20;;;;;;;9.43;6.28;;;22.20;59.70;;;;;;4983465;28;20053;-91
2023/10/12 12:15:50;;;;;;;5.60;4.82;;;22.10;60.20;;;;;;4983830;28;20072;-91
2023/10/12 12:18:20;;;;;;;6.78;5.68;;;22.20;60.60;;;;;;4957873;29;20034;-90
2023/10/12 12:20:49;;;;;;;6.78;5.65;;;22.10;61.50;;;;;;4946739;29;20028;-88
2023/10/12 12:23:16;;;;;;;7.85;5.05;;;22.20;61.20;;;;;;4980748;28;20029;-92
2023/10/12 12:25:42;;;;;;;7.78;5.15;;;22.20;61.10;;;;;;4985352;28;20544;-90
2023/10/12 12:28:32;;;;;;;6.93;5.45;;;22.20;62.00;;;;;;4983896;28;20062;-90
2023/10/12 12:31:00;;;;;;;8.18;5.30;;;22.20;61.80;;;;;;4982700;28;20042;-89
2023/10/12 12:33:29;;;;;;;8.68;5.45;;;22.20;61.50;;;;;;4982415;28;20035;-89
2023/10/12 12:36:01;;;;;;;8.52;5.13;;;22.20;62.80;;;;;;4961302;28;20015;-89
2023/10/12 12:40:59;;;;;;;5.63;3.72;;;22.20;61.80;;;;;;4983990;28;20465;-92
2023/10/12 12:43:25;;;;;;;10.18;5.90;;;22.30;61.70;;;;;;4983142;28;20113;-91
2023/10/12 12:45:57;;;;;;;10.93;4.40;;;22.20;61.90;;;;;;4980554;28;20019;-90
2023/10/12 12:48:23;;;;;;;8.40;4.95;;;22.20;63.70;;;;;;4981561;28;20031;-91
2023/10/12 12:50:48;;;;;;;6.00;5.50;;;22.20;61.10;;;;;;4994829;28;20051;-91
2023/10/12 12:53:18;;;;;;;7.03;5.65;;;22.20;60.40;;;;;;4981231;28;20027;-90
2023/10/12 12:55:46;;;;;;;7.18;4.90;;;22.20;60.50;;;;;;4977883;28;20049;-91
2023/10/12 12:58:15;;;;;;;5.57;5.00;;;22.20;61.00;;;;;;4979335;28;20031;-91
2023/10/12 13:00:42;;;;;;;7.10;5.28;;;22.30;61.00;;;;;;4973012;28;20015;-89
2023/10/12 13:03:09;;;;;;;7.05;5.60;;;22.20;61.40;;;;;;4981343;28;20029;-91
2023/10/12 13:05:35;;;;;;;9.25;5.88;;;22.30;61.60;;;;;;4980875;28;20029;-92
2023/10/12 13:08:00;;;;;;;8.68;5.00;;;22.30;60.80;;;;;;4982950;28;20116;-91
2023/10/12 13:10:26;;;;;;;8.73;5.63;;;22.30;60.30;;;;;;4982977;28;20050;-91
2023/10/12 13:12:53;;;;;;;7.82;5.05;;;22.30;60.50;;;;;;4983229;28;20031;-92
2023/10/12 13:15:19;;;;;;;7.20;5.75;;;22.30;61.00;;;;;;4982298;28;20034;-89
2023/10/12 13:17:47;;;;;;;5.45;4.72;;;22.40;60.60;;;;;;4981323;28;20027;-90
2023/10/12 13:20:22;;;;;;;9.77;5.45;;;22.30;60.70;;;;;;4982378;28;20022;-90
2023/10/12 13:22:51;;;;;;;6.60;5.25;;;22.50;60.40;;;;;;4982389;28;20019;-90
2023/10/12 13:25:20;;;;;;;8.10;4.90;;;22.50;60.30;;;;;;4982376;28;20030;-93
2023/10/12 13:27:46;;;;;;;7.47;5.10;;;22.60;59.70;;;;;;4983435;28;20030;-91
2023/10/12 13:30:14;;;;;;;7.15;5.38;;;22.70;60.60;;;;;;4982331;28;20026;-91
2023/10/12 13:32:42;;;;;;;6.72;5.03;;;22.80;60.30;;;;;;4981048;28;20019;-90
2023/10/12 13:37:52;;;;;;;8.63;4.72;;;23.10;59.50;;;;;;4975058;28;20054;-91
2023/10/12 13:40:18;;;;;;;7.95;4.65;;;23.20;58.10;;;;;;4981261;28;20026;-92
2023/10/12 13:42:44;;;;;;;8.55;4.72;;;23.30;58.60;;;;;;4965913;29;20047;-92
2023/10/12 13:45:12;;;;;;;8.88;3.42;;;23.60;58.40;;;;;;4980958;28;20581;-91
2023/10/12 13:47:42;;;;;;;6.90;4.97;;;23.80;58.50;;;;;;4982015;28;20387;-92
2023/10/12 13:50:11;;;;;;;8.02;5.50;;;23.90;56.70;;;;;;4981965;28;20019;-92
2023/10/12 13:52:38;;;;;;;9.40;4.55;;;23.90;57.20;;;;;;4981627;28;20030;-91
2023/10/12 13:55:14;;;;;;;7.47;4.60;;;23.80;56.40;;;;;;4980636;28;20023;-92
2023/10/12 13:57:57;;;;;;;7.35;5.40;;;23.60;56.90;;;;;;4979212;28;20062;-89
2023/10/12 14:00:26;;;;;;;6.55;4.68;;;23.50;57.50;;;;;;4981894;28;20190;-92
2023/10/12 14:02:56;;;;;;;6.57;4.18;;;23.20;57.70;;;;;;4986985;28;20082;-94
2023/10/12 14:05:27;;;;;;;10.07;5.38;;;23.10;59.00;;;;;;4994220;28;20023;-90
2023/10/12 14:08:00;;;;;;;6.93;5.47;;;23.00;58.80;;;;;;4985351;28;20095;-91
2023/10/12 14:10:29;;;;;;;9.10;5.30;;;23.00;60.10;;;;;;4980172;28;20678;-91
2023/10/12 14:12:56;;;;;;;7.53;4.75;;;23.00;60.00;;;;;;4980526;28;20104;-91
2023/10/12 14:15:24;;;;;;;7.45;5.10;;;22.90;58.30;;;;;;4975471;28;20035;-90
2023/10/12 14:17:54;;;;;;;6.45;3.78;;;23.00;58.70;;;;;;4973954;28;20508;-93
2023/10/12 14:20:26;;;;;;;7.55;4.85;;;23.00;59.10;;;;;;4981305;28;20035;-92
2023/10/12 14:22:57;;;;;;;5.97;5.47;;;23.10;58.60;;;;;;4991120;28;20041;-89
2023/10/12 14:25:28;;;;;;;7.55;5.07;;;23.20;59.30;;;;;;4982657;28;20023;-90
2023/10/12 14:27:55;;;;;;;8.65;5.18;;;23.10;58.40;;;;;;4975111;28;20051;-91
2023/10/12 14:30:28;;;;;;;7.53;5.85;;;23.10;58.70;;;;;;4971134;28;20023;-92
2023/10/12 14:32:57;;;;;;;8.63;4.85;;;23.10;59.70;;;;;;4979405;28;20529;-91
2023/10/12 14:35:28;;;;;;;9.13;5.03;;;23.00;60.00;;;;;;4981123;28;20035;-92
2023/10/12 14:37:55;;;;;;;7.38;4.65;;;23.00;60.40;;;;;;4980970;28;20035;-90
2023/10/12 14:40:31;;;;;;;7.43;5.13;;;23.00;60.00;;;;;;4980239;28;20102;-90
2023/10/12 14:43:11;;;;;;;6.90;4.80;;;22.90;60.60;;;;;;4981527;28;20026;-91
2023/10/12 14:45:37;;;;;;;;;;;23.00;61.10;;;;;;4979879;28;20600;-90
2023/10/12 14:48:09;;;;;;;8.07;5.90;;;22.90;60.80;;;;;;4974193;28;19910;-89
2023/10/12 14:50:45;;;;;;;6.50;5.57;;;22.80;62.00;;;;;;4980277;28;20027;-93
2023/10/12 14:53:11;;;;;;;7.63;4.93;;;22.80;62.30;;;;;;4980247;28;20023;-91
2023/10/12 14:55:40;;;;;;;7.72;5.85;;;22.70;63.00;;;;;;4979433;28;20098;-90
2023/10/12 14:58:07;;;;;;;8.48;5.40;;;22.70;63.20;;;;;;4978844;28;20489;-92
2023/10/12 15:00:34;;;;;;;7.57;5.75;;;22.70;64.10;;;;;;4979635;28;20034;-90
2023/10/12 15:03:00;;;;;;;8.40;5.57;;;22.60;63.80;;;;;;4978708;28;20027;-93
2023/10/12 15:05:32;;;;;;;8.70;5.32;;;22.50;63.10;;;;;;4980023;28;20054;-91
2023/10/12 15:07:58;;;;;;;7.75;3.70;;;22.40;63.50;;;;;;4978568;28;20027;-90
2023/10/12 15:10:25;;;;;;;8.93;5.47;;;22.50;63.60;;;;;;4978709;28;20030;-91
2023/10/12 15:12:51;;;;;;;10.25;4.70;;;22.50;64.30;;;;;;4978641;28;20093;-90
2023/10/12 15:15:24;;;;;;;12.90;5.07;;;22.50;64.20;;;;;;4979485;28;20042;-90
2023/10/12 15:17:52;;;;;;;;;;;22.50;65.30;;;;;;4993724;28;20103;-90
2023/10/12 15:20:18;;;;;;;8.60;4.95;;;22.40;66.10;;;;;;4982062;28;19930;-91
2023/10/12 15:22:47;;;;;;;9.73;5.43;;;22.30;66.50;;;;;;4982367;28;20038;-90
2023/10/12 15:25:18;;;;;;;7.47;4.75;;;22.40;67.50;;;;;;4957101;29;20050;-95
2023/10/12 15:27:45;;;;;;;10.90;5.90;;;22.20;67.20;;;;;;4975213;28;20172;-92
2023/10/12 15:30:11;;;;;;;12.45;5.72;;;22.20;67.40;;;;;;4982386;28;20019;-92
2023/10/12 15:32:41;;;;;;;10.85;5.60;;;22.10;68.00;;;;;;4973039;28;20031;-90
2023/10/12 15:35:10;;;;;;;9.25;5.07;;;22.20;67.80;;;;;;4982808;28;20023;-91
2023/10/12 15:37:46;;;;;;;10.77;4.80;;;22.00;68.50;;;;;;4982683;28;20035;-91
2023/10/12 15:40:17;;;;;;;9.10;5.85;;;22.00;70.40;;;;;;4982777;28;20022;-89
2023/10/12 15:42:45;;;;;;;9.10;4.30;;;21.90;71.80;;;;;;4982840;28;20047;-93
2023/10/12 15:45:11;;;;;;;6.30;4.40;;;21.90;72.50;;;;;;4984834;28;20049;-92
2023/10/12 15:47:36;;;;;;;8.25;4.75;;;21.90;72.90;;;;;;4982192;28;20062;-90
2023/10/12 15:50:04;;;;;;;8.00;5.32;;;21.80;74.20;;;;;;4981833;28;20030;-90